Time;durP1;ratioP1;P1;durP2;ratioP2;P2;SDS_P1;SDS_P2;PMS_P1;PMS_P2;Temp;Humidity;BMP_temperature;BMP_pressure;BME280_temperature;BME280_humidity;BME280_pressure;Samples;Min_cycle;Max_cycle;Signal;HPM_P1;HPM_P2
2022/03/14 00:00:35;;;;;;;13.68;8.93;;;;;;;;;;4996061;28;20400;-69
2022/03/14 00:03:05;;;;;;;14.38;9.02;;;;;;;;;;4994633;28;20050;-68
2022/03/14 00:05:36;;;;;;;15.48;8.32;;;;;;;;;;4995753;28;20093;-68
2022/03/14 00:08:06;;;;;;;15.75;9.00;;;;;;;;;;4978105;28;20050;-68
2022/03/14 00:10:58;;;;;;;15.18;8.85;;;;;;;;;;4995409;28;20046;-68
2022/03/14 00:13:29;;;;;;;13.63;9.05;;;;;;;;;;4993974;28;20478;-68
2022/03/14 00:16:03;;;;;;;15.15;8.68;;;;;;;;;;4994139;28;20046;-68
2022/03/14 00:18:34;;;;;;;14.23;8.98;;;;;;;;;;4994106;28;20061;-68
2022/03/14 00:21:06;;;;;;;14.40;8.77;;;;;;;;;;4994946;28;20097;-68
2022/03/14 00:23:36;;;;;;;13.23;8.15;;;;;;;;;;4993657;28;20508;-68
2022/03/14 00:26:07;;;;;;;13.93;8.88;;;;;;;;;;4995193;28;20046;-68
2022/03/14 00:28:36;;;;;;;14.63;8.15;;;;;;;;;;4994725;28;20073;-69
2022/03/14 00:31:03;;;;;;;13.13;9.13;;;;;;;;;;4984574;28;20054;-68
2022/03/14 00:33:39;;;;;;;12.93;8.57;;;;;;;;;;5015099;28;20053;-69
2022/03/14 00:36:14;;;;;;;12.38;8.23;;;;;;;;;;5013417;28;20041;-68
2022/03/14 00:38:43;;;;;;;15.10;9.00;;;;;;;;;;5013876;28;20092;-68
2022/03/14 00:41:14;;;;;;;14.02;8.55;;;;;;;;;;5014362;28;20046;-68
2022/03/14 00:43:45;;;;;;;14.00;8.82;;;;;;;;;;4996727;28;20074;-68
2022/03/14 00:46:16;;;;;;;13.48;8.48;;;;;;;;;;4996722;28;20120;-68
2022/03/14 00:48:49;;;;;;;15.13;9.10;;;;;;;;;;5013073;28;20168;-68
2022/03/14 00:51:17;;;;;;;12.90;9.00;;;;;;;;;;5014438;28;20069;-68
2022/03/14 00:54:09;;;;;;;14.10;8.88;;;;;;;;;;5013884;28;20416;-68
2022/03/14 00:56:42;;;;;;;14.90;9.45;;;;;;;;;;5014305;28;20042;-68
2022/03/14 00:59:10;;;;;;;14.18;9.00;;;;;;;;;;5014283;28;20042;-68
2022/03/14 01:01:38;;;;;;;13.60;8.77;;;;;;;;;;4996369;28;20084;-69
2022/03/14 01:04:07;;;;;;;13.73;8.85;;;;;;;;;;5014289;28;20452;-68
2022/03/14 01:06:42;;;;;;;14.75;9.05;;;;;;;;;;5014221;28;20049;-68
2022/03/14 01:09:35;;;;;;;12.73;8.68;;;;;;;;;;5012186;28;20085;-68
2022/03/14 01:12:05;;;;;;;15.65;8.23;;;;;;;;;;5012494;28;20049;-68
2022/03/14 01:14:37;;;;;;;14.57;8.38;;;;;;;;;;5012693;28;20053;-68
2022/03/14 01:17:07;;;;;;;16.05;9.23;;;;;;;;;;5012396;28;20045;-68
2022/03/14 01:19:38;;;;;;;16.38;9.25;;;;;;;;;;5012483;28;20057;-69
2022/03/14 01:22:11;;;;;;;14.68;9.38;;;;;;;;;;5013890;28;20053;-68
2022/03/14 01:24:43;;;;;;;14.75;9.07;;;;;;;;;;5013623;28;20054;-68
2022/03/14 01:27:10;;;;;;;14.77;8.90;;;;;;;;;;5012225;28;20057;-68
2022/03/14 01:29:40;;;;;;;14.65;9.05;;;;;;;;;;5011746;28;20096;-68
2022/03/14 01:32:14;;;;;;;15.32;8.95;;;;;;;;;;5012275;28;20058;-68
2022/03/14 01:34:42;;;;;;;15.57;9.40;;;;;;;;;;5013995;28;20137;-68
2022/03/14 01:37:10;;;;;;;14.00;9.27;;;;;;;;;;4995670;28;20053;-69
2022/03/14 01:40:03;;;;;;;20.92;10.68;;;;;;;;;;5012317;28;20092;-69
2022/03/14 01:42:37;;;;;;;16.60;9.73;;;;;;;;;;5012372;28;20100;-68
2022/03/14 01:45:17;;;;;;;15.88;9.75;;;;;;;;;;5013553;28;20042;-68
2022/03/14 01:48:11;;;;;;;18.02;9.57;;;;;;;;;;5011993;28;20100;-68
2022/03/14 01:51:04;;;;;;;15.43;9.30;;;;;;;;;;4995930;28;20046;-68
2022/03/14 01:53:57;;;;;;;14.65;9.15;;;;;;;;;;5012251;28;20049;-68
2022/03/14 01:56:29;;;;;;;16.35;8.70;;;;;;;;;;5013587;28;20073;-68
2022/03/14 01:59:05;;;;;;;14.90;9.40;;;;;;;;;;5013401;28;20042;-68
2022/03/14 02:01:33;;;;;;;14.40;9.00;;;;;;;;;;5011866;28;20088;-68
2022/03/14 02:04:12;;;;;;;15.05;9.52;;;;;;;;;;5013628;28;20045;-68
2022/03/14 02:07:05;;;;;;;16.17;9.27;;;;;;;;;;5011980;28;20123;-68
2022/03/14 02:09:33;;;;;;;15.32;9.65;;;;;;;;;;5013032;28;20461;-68
2022/03/14 02:12:02;;;;;;;16.13;9.48;;;;;;;;;;5011845;28;20497;-68
2022/03/14 02:14:39;;;;;;;16.73;10.07;;;;;;;;;;5013529;28;20381;-68
2022/03/14 02:17:11;;;;;;;15.20;8.68;;;;;;;;;;5011701;28;20038;-68
2022/03/14 02:19:45;;;;;;;18.52;9.90;;;;;;;;;;5013138;28;20493;-68
2022/03/14 02:22:17;;;;;;;16.73;9.75;;;;;;;;;;5013217;28;20042;-68
2022/03/14 02:24:48;;;;;;;18.25;10.88;;;;;;;;;;5011831;28;20073;-68
2022/03/14 02:27:18;;;;;;;19.38;11.05;;;;;;;;;;5013170;28;20073;-68
2022/03/14 02:29:48;;;;;;;19.00;11.90;;;;;;;;;;4995515;28;20096;-68
2022/03/14 02:32:20;;;;;;;18.58;11.23;;;;;;;;;;5012806;28;20553;-68
2022/03/14 02:34:49;;;;;;;18.80;10.85;;;;;;;;;;5011566;28;20453;-68
2022/03/14 02:37:44;;;;;;;17.58;10.63;;;;;;;;;;5016764;28;20042;-68
2022/03/14 02:40:17;;;;;;;15.63;9.93;;;;;;;;;;5016773;28;20045;-68
2022/03/14 02:42:50;;;;;;;16.50;9.85;;;;;;;;;;5015326;28;20053;-69
2022/03/14 02:45:18;;;;;;;17.38;10.48;;;;;;;;;;5016190;28;20050;-68
2022/03/14 02:48:12;;;;;;;18.45;10.02;;;;;;;;;;5016207;28;20056;-69
2022/03/14 02:50:48;;;;;;;17.58;10.45;;;;;;;;;;4998685;28;20394;-69
2022/03/14 02:53:16;;;;;;;15.85;10.25;;;;;;;;;;5017073;28;20042;-69
2022/03/14 02:55:49;;;;;;;17.02;10.23;;;;;;;;;;4998598;28;20053;-69
2022/03/14 02:58:22;;;;;;;20.58;11.27;;;;;;;;;;5015570;28;20048;-68
2022/03/14 03:00:57;;;;;;;21.10;11.40;;;;;;;;;;4998683;28;20045;-68
2022/03/14 03:03:27;;;;;;;17.35;10.77;;;;;;;;;;5016237;28;20088;-68
2022/03/14 03:06:01;;;;;;;21.00;11.45;;;;;;;;;;5014954;28;20070;-68
2022/03/14 03:08:31;;;;;;;16.92;9.77;;;;;;;;;;5015058;28;20078;-68
2022/03/14 03:11:04;;;;;;;20.23;10.70;;;;;;;;;;5016462;28;20042;-68
2022/03/14 03:13:41;;;;;;;17.30;10.45;;;;;;;;;;5016106;28;20053;-68
2022/03/14 03:16:16;;;;;;;18.48;10.68;;;;;;;;;;5014409;28;20092;-68
2022/03/14 03:18:51;;;;;;;21.00;10.75;;;;;;;;;;5014593;28;20046;-68
2022/03/14 03:21:23;;;;;;;16.67;10.50;;;;;;;;;;5014740;28;20046;-68
2022/03/14 03:23:53;;;;;;;20.77;11.48;;;;;;;;;;5015789;28;20393;-68
2022/03/14 03:26:26;;;;;;;20.17;10.60;;;;;;;;;;5015817;28;20477;-68
2022/03/14 03:28:54;;;;;;;15.85;10.73;;;;;;;;;;5014995;28;20042;-68
2022/03/14 03:31:21;;;;;;;19.42;10.88;;;;;;;;;;5015400;28;20054;-68
2022/03/14 03:34:14;;;;;;;17.70;10.98;;;;;;;;;;5015596;28;20037;-67
2022/03/14 03:36:45;;;;;;;20.77;11.63;;;;;;;;;;4998128;28;20080;-68
2022/03/14 03:39:14;;;;;;;19.60;11.20;;;;;;;;;;5014321;28;20559;-68
2022/03/14 03:41:43;;;;;;;20.73;11.02;;;;;;;;;;5015576;28;20034;-68
2022/03/14 03:44:13;;;;;;;18.50;10.80;;;;;;;;;;5014220;28;20129;-68
2022/03/14 03:46:40;;;;;;;18.40;11.15;;;;;;;;;;4998187;28;20448;-68
2022/03/14 03:49:14;;;;;;;18.67;11.60;;;;;;;;;;4997813;28;20050;-68
2022/03/14 03:51:48;;;;;;;17.80;10.70;;;;;;;;;;5015174;28;20478;-68
2022/03/14 03:54:16;;;;;;;19.80;11.02;;;;;;;;;;5015303;28;20044;-68
2022/03/14 03:56:45;;;;;;;16.27;10.63;;;;;;;;;;4981094;28;20065;-68
2022/03/14 03:59:13;;;;;;;23.25;12.50;;;;;;;;;;5013851;28;20466;-68
2022/03/14 04:01:43;;;;;;;17.73;11.27;;;;;;;;;;5015360;28;20551;-68
2022/03/14 04:04:17;;;;;;;22.25;11.65;;;;;;;;;;5013806;28;20049;-68
2022/03/14 04:06:45;;;;;;;22.98;11.57;;;;;;;;;;5015380;28;20042;-68
2022/03/14 04:09:24;;;;;;;17.92;11.52;;;;;;;;;;5014803;28;20038;-68
2022/03/14 04:15:28;;;;;;;21.60;11.40;;;;;;;;;;5015068;28;20381;-68
2022/03/14 04:18:02;;;;;;;19.20;11.57;;;;;;;;;;4996643;28;20038;-68
2022/03/14 04:20:32;;;;;;;21.10;11.40;;;;;;;;;;5014850;28;20108;-68
2022/03/14 04:22:59;;;;;;;23.42;11.80;;;;;;;;;;5014376;28;20069;-68
2022/03/14 04:25:40;;;;;;;18.80;12.10;;;;;;;;;;4997555;28;20045;-68
2022/03/14 04:28:12;;;;;;;20.38;12.57;;;;;;;;;;5013168;28;20052;-68
2022/03/14 04:30:40;;;;;;;21.65;13.00;;;;;;;;;;5013963;28;20066;-68
2022/03/14 04:33:10;;;;;;;21.38;13.07;;;;;;;;;;4996878;28;20049;-68
2022/03/14 04:35:43;;;;;;;21.27;12.68;;;;;;;;;;5014427;28;20121;-68
2022/03/14 04:38:11;;;;;;;19.50;12.13;;;;;;;;;;5014332;28;20101;-68
2022/03/14 04:41:03;;;;;;;22.10;12.35;;;;;;;;;;5014488;28;20054;-68
2022/03/14 04:43:35;;;;;;;21.33;12.15;;;;;;;;;;4996804;28;20089;-68
2022/03/14 04:46:07;;;;;;;24.80;13.35;;;;;;;;;;5012968;28;20145;-69
2022/03/14 04:48:35;;;;;;;23.83;14.68;;;;;;;;;;5014024;28;20044;-69
2022/03/14 04:51:05;;;;;;;28.20;15.30;;;;;;;;;;5029521;28;20047;-69
2022/03/14 04:53:40;;;;;;;23.05;13.75;;;;;;;;;;5034100;28;20045;-69
2022/03/14 04:56:12;;;;;;;25.80;13.57;;;;;;;;;;5033870;28;20095;-69
2022/03/14 04:58:44;;;;;;;27.40;14.35;;;;;;;;;;5032919;28;20060;-69
2022/03/14 05:01:13;;;;;;;28.92;14.43;;;;;;;;;;5033772;28;20069;-68
2022/03/14 05:03:44;;;;;;;26.95;13.80;;;;;;;;;;5033527;28;20116;-69
2022/03/14 05:06:14;;;;;;;29.25;14.18;;;;;;;;;;5034093;28;20050;-69
2022/03/14 05:08:43;;;;;;;27.83;15.05;;;;;;;;;;5032522;28;20049;-69
2022/03/14 05:11:14;;;;;;;27.55;14.18;;;;;;;;;;5033796;28;20051;-69
2022/03/14 05:13:42;;;;;;;23.75;14.25;;;;;;;;;;5015858;28;20128;-68
2022/03/14 05:16:10;;;;;;;24.30;14.82;;;;;;;;;;5031181;28;20041;-68
2022/03/14 05:18:50;;;;;;;24.52;15.50;;;;;;;;;;5033006;28;20041;-69
2022/03/14 05:21:22;;;;;;;28.92;15.57;;;;;;;;;;5015531;28;20167;-69
2022/03/14 05:23:53;;;;;;;27.13;15.68;;;;;;;;;;4999328;28;20057;-69
2022/03/14 05:26:46;;;;;;;27.27;16.08;;;;;;;;;;5033738;28;20124;-69
2022/03/14 05:29:39;;;;;;;34.63;20.38;;;;;;;;;;5033460;28;20049;-69
2022/03/14 05:32:08;;;;;;;39.40;22.63;;;;;;;;;;5032103;28;20140;-69
2022/03/14 05:34:41;;;;;;;40.88;21.48;;;;;;;;;;5031945;28;20045;-70
2022/03/14 05:37:13;;;;;;;53.30;25.10;;;;;;;;;;5015349;28;20072;-69
2022/03/14 05:39:49;;;;;;;42.10;22.65;;;;;;;;;;5033602;28;20088;-69
2022/03/14 05:42:16;;;;;;;33.35;21.20;;;;;;;;;;5015692;28;20145;-69
2022/03/14 05:44:48;;;;;;;48.03;24.70;;;;;;;;;;5015560;28;20133;-69
2022/03/14 05:47:41;;;;;;;51.30;26.27;;;;;;;;;;5029784;28;20149;-69
2022/03/14 05:50:35;;;;;;;43.22;22.52;;;;;;;;;;5032339;28;20057;-69
2022/03/14 05:53:03;;;;;;;45.30;25.50;;;;;;;;;;5033285;28;20385;-69
2022/03/14 05:55:34;;;;;;;44.33;25.98;;;;;;;;;;5015483;28;20456;-69
2022/03/14 05:58:03;;;;;;;43.17;25.67;;;;;;;;;;5014075;28;20103;-69
2022/03/14 06:00:33;;;;;;;45.28;25.98;;;;;;;;;;5032848;28;20463;-69
2022/03/14 06:03:05;;;;;;;39.97;22.75;;;;;;;;;;5032911;28;20488;-70
2022/03/14 06:05:42;;;;;;;36.08;20.48;;;;;;;;;;5031731;28;20132;-70
2022/03/14 06:08:10;;;;;;;38.97;19.65;;;;;;;;;;5015310;28;20128;-69
2022/03/14 06:10:38;;;;;;;35.17;19.50;;;;;;;;;;5035961;28;20108;-68
2022/03/14 06:13:31;;;;;;;30.08;18.27;;;;;;;;;;5036841;28;20041;-69
2022/03/14 06:16:01;;;;;;;31.70;19.17;;;;;;;;;;5019200;28;20065;-69
2022/03/14 06:18:34;;;;;;;31.48;18.48;;;;;;;;;;5036868;28;20480;-69
2022/03/14 06:21:02;;;;;;;27.55;17.58;;;;;;;;;;5019108;28;20564;-69
2022/03/14 06:23:34;;;;;;;27.27;16.80;;;;;;;;;;5035250;28;20053;-69
2022/03/14 06:26:08;;;;;;;27.75;17.30;;;;;;;;;;5019050;28;20049;-69
2022/03/14 06:28:38;;;;;;;29.70;18.23;;;;;;;;;;5035461;28;20079;-69
2022/03/14 06:31:06;;;;;;;35.85;18.42;;;;;;;;;;5014834;28;20050;-69
2022/03/14 06:33:36;;;;;;;33.28;18.10;;;;;;;;;;5017015;28;20042;-70
2022/03/14 06:36:05;;;;;;;27.70;17.63;;;;;;;;;;5015199;28;20048;-70
2022/03/14 06:38:36;;;;;;;29.50;17.67;;;;;;;;;;5015227;28;20053;-70
2022/03/14 06:41:11;;;;;;;30.38;17.25;;;;;;;;;;5015636;28;20050;-70
2022/03/14 06:43:39;;;;;;;27.08;17.88;;;;;;;;;;5016735;28;20205;-70
2022/03/14 06:46:06;;;;;;;30.52;19.20;;;;;;;;;;4998635;28;20048;-70
2022/03/14 06:48:40;;;;;;;32.10;18.42;;;;;;;;;;4998618;28;20108;-70
2022/03/14 06:51:08;;;;;;;30.52;18.38;;;;;;;;;;5016333;28;20477;-70
2022/03/14 06:53:37;;;;;;;29.83;17.88;;;;;;;;;;5016613;28;20038;-70
2022/03/14 06:56:09;;;;;;;28.73;19.10;;;;;;;;;;4999246;28;20041;-69
2022/03/14 06:58:40;;;;;;;27.40;18.02;;;;;;;;;;5016759;28;20057;-69
2022/03/14 07:01:13;;;;;;;29.85;18.63;;;;;;;;;;4999857;28;20061;-70
2022/03/14 07:03:42;;;;;;;27.23;18.88;;;;;;;;;;5016324;28;20406;-69
2022/03/14 07:06:12;;;;;;;28.55;17.52;;;;;;;;;;5014613;28;20137;-69
2022/03/14 07:08:40;;;;;;;24.58;17.35;;;;;;;;;;4999042;28;20068;-69
2022/03/14 07:11:12;;;;;;;33.22;18.77;;;;;;;;;;4998360;28;20065;-69
2022/03/14 07:13:44;;;;;;;29.88;19.17;;;;;;;;;;5015251;28;20040;-69
2022/03/14 07:16:13;;;;;;;33.20;21.15;;;;;;;;;;5016076;28;20046;-69
2022/03/14 07:18:41;;;;;;;29.45;19.58;;;;;;;;;;4998658;28;20052;-68
2022/03/14 07:21:09;;;;;;;30.85;19.85;;;;;;;;;;5015337;28;20089;-69
2022/03/14 07:23:54;;;;;;;29.75;18.65;;;;;;;;;;5014581;28;20469;-69
2022/03/14 07:26:21;;;;;;;29.47;19.37;;;;;;;;;;5014685;28;20056;-70
2022/03/14 07:28:49;;;;;;;21.98;16.55;;;;;;;;;;5015877;28;20049;-70
2022/03/14 07:31:17;;;;;;;23.42;16.88;;;;;;;;;;5021184;28;20047;-69
2022/03/14 07:34:14;;;;;;;21.98;16.67;;;;;;;;;;5035687;28;20053;-69
2022/03/14 07:36:46;;;;;;;21.75;14.82;;;;;;;;;;5034290;28;20060;-69
2022/03/14 07:39:39;;;;;;;20.83;14.00;;;;;;;;;;5017609;28;20141;-69
2022/03/14 07:42:07;;;;;;;20.98;13.93;;;;;;;;;;5035075;28;20567;-69
2022/03/14 07:44:39;;;;;;;20.05;14.23;;;;;;;;;;5017527;28;20057;-70
2022/03/14 07:47:13;;;;;;;17.30;12.10;;;;;;;;;;5035688;28;20078;-70
2022/03/14 07:49:41;;;;;;;16.85;12.52;;;;;;;;;;5017692;28;20558;-69
2022/03/14 07:52:26;;;;;;;19.02;12.90;;;;;;;;;;5017121;28;20432;-69
2022/03/14 07:54:53;;;;;;;17.95;11.95;;;;;;;;;;5017277;28;20099;-70
2022/03/14 07:57:21;;;;;;;22.92;14.73;;;;;;;;;;5035089;28;20037;-69
2022/03/14 07:59:52;;;;;;;17.67;13.05;;;;;;;;;;5034878;28;20104;-69
2022/03/14 08:02:22;;;;;;;18.75;11.90;;;;;;;;;;5033563;28;20484;-69
2022/03/14 08:04:56;;;;;;;17.05;10.88;;;;;;;;;;5017133;28;20401;-70
2022/03/14 08:07:27;;;;;;;17.58;10.70;;;;;;;;;;5034948;28;20041;-70
2022/03/14 08:09:59;;;;;;;15.20;10.80;;;;;;;;;;5035169;28;20116;-70
2022/03/14 08:12:33;;;;;;;18.85;11.63;;;;;;;;;;5016820;28;20140;-70
2022/03/14 08:15:25;;;;;;;16.33;11.38;;;;;;;;;;5034457;28;20053;-70
2022/03/14 08:17:56;;;;;;;15.35;10.48;;;;;;;;;;5016565;28;20096;-70
2022/03/14 08:20:26;;;;;;;16.85;10.95;;;;;;;;;;5034596;28;20393;-70
2022/03/14 08:23:19;;;;;;;23.23;14.95;;;;;;;;;;5034478;28;20096;-70
2022/03/14 08:25:51;;;;;;;18.23;11.23;;;;;;;;;;5033260;28;20072;-70
2022/03/14 08:28:19;;;;;;;37.72;22.50;;;;;;;;;;5034649;28;20445;-70
2022/03/14 08:30:48;;;;;;;15.70;11.70;;;;;;;;;;5032582;28;20045;-70
2022/03/14 08:33:20;;;;;;;15.38;10.88;;;;;;;;;;5034348;28;20046;-68
2022/03/14 08:35:49;;;;;;;16.65;11.60;;;;;;;;;;5032705;28;20041;-69
2022/03/14 08:38:18;;;;;;;17.48;11.55;;;;;;;;;;5033928;28;20063;-69
2022/03/14 08:40:51;;;;;;;18.77;11.90;;;;;;;;;;5034472;28;20057;-69
2022/03/14 08:43:22;;;;;;;18.33;11.77;;;;;;;;;;5034020;28;20095;-68
2022/03/14 08:45:54;;;;;;;16.42;11.35;;;;;;;;;;5015952;28;20049;-69
2022/03/14 08:48:47;;;;;;;19.27;11.82;;;;;;;;;;5034100;28;20045;-69
2022/03/14 08:51:15;;;;;;;16.90;12.05;;;;;;;;;;5032606;28;20144;-68
2022/03/14 08:53:45;;;;;;;16.77;11.60;;;;;;;;;;5015954;28;20129;-69
2022/03/14 08:56:16;;;;;;;18.23;12.90;;;;;;;;;;5033640;28;20437;-69
2022/03/14 08:58:53;;;;;;;21.27;12.50;;;;;;;;;;5016149;28;20073;-69
2022/03/14 09:01:23;;;;;;;24.30;14.38;;;;;;;;;;5032499;28;20037;-69
2022/03/14 09:03:53;;;;;;;21.10;13.15;;;;;;;;;;5015718;28;20041;-69
2022/03/14 09:06:46;;;;;;;21.33;13.13;;;;;;;;;;5016339;28;20065;-69
2022/03/14 09:09:14;;;;;;;19.52;11.65;;;;;;;;;;5033627;28;20034;-68
2022/03/14 09:11:47;;;;;;;20.23;11.63;;;;;;;;;;5015815;28;20037;-68
2022/03/14 09:14:18;;;;;;;16.90;11.68;;;;;;;;;;5032477;28;20073;-68
2022/03/14 09:16:51;;;;;;;20.75;12.25;;;;;;;;;;5033704;28;20083;-70
2022/03/14 09:19:21;;;;;;;23.80;13.07;;;;;;;;;;5033697;28;20042;-69
2022/03/14 09:21:57;;;;;;;19.90;12.40;;;;;;;;;;5032484;28;20046;-70
2022/03/14 09:24:34;;;;;;;19.73;11.43;;;;;;;;;;5034210;28;20069;-69
2022/03/14 09:27:06;;;;;;;19.30;12.20;;;;;;;;;;5033634;28;20411;-69
2022/03/14 09:29:40;;;;;;;16.90;11.68;;;;;;;;;;5033185;28;20041;-69
2022/03/14 09:32:15;;;;;;;17.73;10.90;;;;;;;;;;5033028;28;20488;-69
2022/03/14 09:34:43;;;;;;;18.58;11.13;;;;;;;;;;5033418;28;20041;-69
2022/03/14 09:37:15;;;;;;;16.17;11.15;;;;;;;;;;5032988;28;20064;-69
2022/03/14 09:43:00;;;;;;;16.77;11.02;;;;;;;;;;5032906;28;20041;-69
2022/03/14 09:45:53;;;;;;;17.23;11.27;;;;;;;;;;5032175;28;20069;-70
2022/03/14 09:48:20;;;;;;;15.63;10.95;;;;;;;;;;5033198;28;20489;-69
2022/03/14 09:50:53;;;;;;;16.52;12.15;;;;;;;;;;5031540;28;20096;-69
2022/03/14 09:53:25;;;;;;;17.33;11.45;;;;;;;;;;5015243;28;20072;-69
2022/03/14 09:55:58;;;;;;;14.93;10.70;;;;;;;;;;5032519;28;20045;-70
2022/03/14 09:58:28;;;;;;;18.88;11.43;;;;;;;;;;5031707;28;20054;-70
2022/03/14 10:01:01;;;;;;;15.70;11.07;;;;;;;;;;5015081;28;20405;-69
2022/03/14 10:03:56;;;;;;;19.77;11.55;;;;;;;;;;5031727;28;20518;-69
2022/03/14 10:06:23;;;;;;;15.57;11.10;;;;;;;;;;5033303;28;20072;-69
2022/03/14 10:08:53;;;;;;;17.13;11.38;;;;;;;;;;5033095;28;20065;-69
2022/03/14 10:11:23;;;;;;;16.42;12.23;;;;;;;;;;5031562;28;20049;-69
2022/03/14 10:13:56;;;;;;;17.85;10.98;;;;;;;;;;5015272;28;20045;-69
2022/03/14 10:16:26;;;;;;;18.33;11.63;;;;;;;;;;5031728;28;20045;-69
2022/03/14 10:19:01;;;;;;;17.08;10.88;;;;;;;;;;5032740;28;20055;-69
2022/03/14 10:21:39;;;;;;;18.65;11.25;;;;;;;;;;5033314;28;20436;-69
2022/03/14 10:24:10;;;;;;;16.23;10.70;;;;;;;;;;5015259;28;20049;-70
2022/03/14 10:26:44;;;;;;;15.10;10.93;;;;;;;;;;5031270;28;20045;-68
2022/03/14 10:29:18;;;;;;;16.70;11.52;;;;;;;;;;5015478;28;20573;-69
2022/03/14 10:31:56;;;;;;;17.77;11.00;;;;;;;;;;5031601;28;20140;-68
2022/03/14 10:34:24;;;;;;;15.93;11.13;;;;;;;;;;5032799;28;20065;-68
2022/03/14 10:36:57;;;;;;;14.60;11.02;;;;;;;;;;5032909;28;20046;-69
2022/03/14 10:39:33;;;;;;;14.55;10.00;;;;;;;;;;5033058;28;20077;-69
2022/03/14 10:42:12;;;;;;;14.68;10.43;;;;;;;;;;5032836;28;20124;-69
2022/03/14 10:44:50;;;;;;;13.63;9.85;;;;;;;;;;5031325;28;20049;-69
2022/03/14 10:47:20;;;;;;;14.82;9.73;;;;;;;;;;5032410;28;20049;-69
2022/03/14 10:49:54;;;;;;;15.05;9.70;;;;;;;;;;5032549;28;20084;-68
2022/03/14 10:52:23;;;;;;;15.10;9.52;;;;;;;;;;5032666;28;20041;-68
2022/03/14 10:54:52;;;;;;;16.02;9.93;;;;;;;;;;5032541;28;20038;-69
2022/03/14 10:57:29;;;;;;;16.33;9.52;;;;;;;;;;5026315;28;20052;-69
2022/03/14 10:59:58;;;;;;;14.10;10.05;;;;;;;;;;5036053;28;20124;-69
2022/03/14 11:02:31;;;;;;;21.00;13.55;;;;;;;;;;5034564;28;20412;-69
2022/03/14 11:05:05;;;;;;;15.07;10.07;;;;;;;;;;5036266;28;20056;-69
2022/03/14 11:07:36;;;;;;;16.05;10.65;;;;;;;;;;5034646;28;20103;-68
2022/03/14 11:10:07;;;;;;;12.73;9.73;;;;;;;;;;5035801;28;20107;-69
2022/03/14 11:12:39;;;;;;;15.48;10.15;;;;;;;;;;5035907;28;20400;-69
2022/03/14 11:15:13;;;;;;;14.10;10.20;;;;;;;;;;5036234;28;20037;-69
2022/03/14 11:17:45;;;;;;;14.80;10.27;;;;;;;;;;5035864;28;20107;-69
2022/03/14 11:20:33;;;;;;;18.05;9.65;;;;;;;;;;5017802;28;20041;-69
2022/03/14 11:23:07;;;;;;;13.70;9.75;;;;;;;;;;5035786;28;20436;-69
2022/03/14 11:25:39;;;;;;;15.23;10.00;;;;;;;;;;5018160;28;20133;-69
2022/03/14 11:28:31;;;;;;;15.95;10.98;;;;;;;;;;5035525;28;20535;-69
2022/03/14 11:31:00;;;;;;;14.25;9.95;;;;;;;;;;5034934;28;20496;-70
2022/03/14 11:33:52;;;;;;;14.82;9.82;;;;;;;;;;5017565;28;20496;-70
2022/03/14 11:36:21;;;;;;;14.52;10.02;;;;;;;;;;5035577;28;20043;-69
2022/03/14 11:38:50;;;;;;;16.58;10.27;;;;;;;;;;5017557;28;20049;-70
2022/03/14 11:41:22;;;;;;;15.25;10.00;;;;;;;;;;5034370;28;20041;-69
2022/03/14 11:43:55;;;;;;;16.27;9.88;;;;;;;;;;5034470;28;20048;-70
2022/03/14 11:46:39;;;;;;;16.00;9.57;;;;;;;;;;5017711;28;20053;-70
2022/03/14 11:49:11;;;;;;;14.88;10.40;;;;;;;;;;5034134;28;20045;-70
2022/03/14 11:51:43;;;;;;;14.10;10.13;;;;;;;;;;5034561;28;20531;-70
2022/03/14 11:54:13;;;;;;;13.02;9.77;;;;;;;;;;5035325;28;20041;-70
2022/03/14 11:56:56;;;;;;;14.32;10.52;;;;;;;;;;5035069;28;20128;-69
2022/03/14 11:59:27;;;;;;;13.68;10.63;;;;;;;;;;5034718;28;20042;-69
2022/03/14 12:02:02;;;;;;;14.15;9.77;;;;;;;;;;5035077;28;20111;-70
2022/03/14 12:04:35;;;;;;;14.73;9.60;;;;;;;;;;5034889;28;20044;-69
2022/03/14 12:07:09;;;;;;;18.77;11.52;;;;;;;;;;5033009;28;20140;-69
2022/03/14 12:09:46;;;;;;;16.77;9.43;;;;;;;;;;5033746;28;20140;-70
2022/03/14 12:12:22;;;;;;;14.15;9.20;;;;;;;;;;5035103;28;20465;-70
2022/03/14 12:14:59;;;;;;;12.13;9.20;;;;;;;;;;5017224;28;20042;-70
2022/03/14 12:17:30;;;;;;;16.98;11.18;;;;;;;;;;5034741;28;20447;-69
2022/03/14 12:20:03;;;;;;;14.30;9.10;;;;;;;;;;5034941;28;20049;-70
2022/03/14 12:22:39;;;;;;;14.63;9.77;;;;;;;;;;5034772;28;20049;-70
2022/03/14 12:25:12;;;;;;;14.27;9.70;;;;;;;;;;5016631;28;20091;-69
2022/03/14 12:27:42;;;;;;;15.68;9.93;;;;;;;;;;5016539;28;20080;-69
2022/03/14 12:30:16;;;;;;;16.95;10.85;;;;;;;;;;5033035;28;20069;-70
2022/03/14 12:32:46;;;;;;;13.80;9.80;;;;;;;;;;5033807;28;20412;-69
2022/03/14 12:35:39;;;;;;;14.27;9.65;;;;;;;;;;5016478;28;20492;-69
2022/03/14 12:38:21;;;;;;;13.65;9.82;;;;;;;;;;5034496;28;20046;-70
2022/03/14 12:40:56;;;;;;;14.55;10.23;;;;;;;;;;5016444;28;20048;-69
2022/03/14 12:43:31;;;;;;;;;;;;;;;;;;5017125;28;20136;-69
2022/03/14 12:46:02;;;;;;;13.68;9.50;;;;;;;;;;5033808;28;19927;-69
2022/03/14 12:48:51;;;;;;;13.50;8.90;;;;;;;;;;5034336;28;20056;-69
2022/03/14 12:51:26;;;;;;;14.43;10.20;;;;;;;;;;5033289;28;20041;-70
2022/03/14 12:54:07;;;;;;;17.08;9.48;;;;;;;;;;5033786;28;20045;-69
2022/03/14 12:57:00;;;;;;;16.63;9.57;;;;;;;;;;5016374;28;20041;-69
2022/03/14 12:59:31;;;;;;;14.93;10.38;;;;;;;;;;5033889;28;20060;-69
2022/03/14 13:02:05;;;;;;;14.93;9.95;;;;;;;;;;5033740;28;20072;-69
2022/03/14 13:04:34;;;;;;;15.70;10.20;;;;;;;;;;5034429;28;20045;-69
2022/03/14 13:07:05;;;;;;;15.20;10.38;;;;;;;;;;5033355;28;20044;-69
2022/03/14 13:09:51;;;;;;;16.55;10.45;;;;;;;;;;5032440;28;20037;-69
2022/03/14 13:13:01;;;;;;;15.18;10.55;;;;;;;;;;5034125;28;20507;-70
2022/03/14 13:15:55;;;;;;;13.02;9.77;;;;;;;;;;5016289;28;20511;-68
2022/03/14 13:18:23;;;;;;;13.35;9.65;;;;;;;;;;5031906;28;20444;-71
2022/03/14 13:24:49;;;;;;;14.77;10.20;;;;;;;;;;5033758;28;20076;-69
2022/03/14 13:30:45;;;;;;;16.40;10.40;;;;;;;;;;5015635;28;20045;-69
2022/03/14 13:33:24;;;;;;;14.93;10.88;;;;;;;;;;5013314;28;20395;-69
2022/03/14 13:36:01;;;;;;;14.57;10.35;;;;;;;;;;5013111;28;20049;-69
2022/03/14 13:38:39;;;;;;;13.50;9.85;;;;;;;;;;5012126;28;20390;-69
2022/03/14 13:41:12;;;;;;;13.77;10.00;;;;;;;;;;5013633;28;20046;-70
2022/03/14 13:43:46;;;;;;;16.73;10.50;;;;;;;;;;5012214;28;20511;-70
2022/03/14 13:46:32;;;;;;;16.90;11.15;;;;;;;;;;4995882;28;20042;-70
2022/03/14 13:52:37;;;;;;;16.90;9.95;;;;;;;;;;4964808;28;20053;-69
2022/03/14 13:55:30;;;;;;;13.68;9.48;;;;;;;;;;5013144;28;20092;-70
2022/03/14 13:58:03;;;;;;;14.05;9.20;;;;;;;;;;5011917;28;20049;-69
2022/03/14 14:00:31;;;;;;;13.48;9.45;;;;;;;;;;5011728;28;20042;-69
2022/03/14 14:03:05;;;;;;;16.00;10.02;;;;;;;;;;4995865;28;20042;-70
2022/03/14 14:05:39;;;;;;;12.75;9.88;;;;;;;;;;5012182;28;20045;-71
2022/03/14 14:08:07;;;;;;;14.52;9.43;;;;;;;;;;5012663;28;20049;-71
2022/03/14 14:14:33;;;;;;;25.50;10.93;;;;;;;;;;5012922;28;20569;-70
2022/03/14 14:17:24;;;;;;;13.35;9.55;;;;;;;;;;5013511;28;20046;-70
2022/03/14 14:20:06;;;;;;;13.48;10.38;;;;;;;;;;5012311;28;20042;-70
2022/03/14 14:27:01;;;;;;;15.18;9.85;;;;;;;;;;5012723;28;20073;-69
2022/03/14 14:29:59;;;;;;;23.58;15.45;;;;;;;;;;4995179;28;20516;-68
2022/03/14 14:32:27;;;;;;;24.00;17.17;;;;;;;;;;5030249;28;20111;-68
2022/03/14 14:35:03;;;;;;;20.60;13.63;;;;;;;;;;5036558;28;20041;-69
2022/03/14 14:37:32;;;;;;;14.10;10.15;;;;;;;;;;5035258;28;20061;-68
2022/03/14 14:40:03;;;;;;;16.23;10.38;;;;;;;;;;5036290;28;20041;-69
2022/03/14 14:42:37;;;;;;;16.55;10.45;;;;;;;;;;5036625;28;20045;-69
2022/03/14 14:45:04;;;;;;;14.48;9.55;;;;;;;;;;5036151;28;20471;-68
2022/03/14 14:47:58;;;;;;;13.93;10.00;;;;;;;;;;5035230;28;20091;-67
2022/03/14 14:50:26;;;;;;;16.20;10.20;;;;;;;;;;5018519;28;20052;-67
2022/03/14 14:53:19;;;;;;;12.77;9.27;;;;;;;;;;5018233;28;20073;-68
2022/03/14 14:55:48;;;;;;;16.45;10.82;;;;;;;;;;5002364;28;20049;-68
2022/03/14 15:09:34;;;;;;;14.27;9.75;;;;;;;;;;5029626;28;20187;-69
2022/03/14 15:12:06;;;;;;;15.10;10.68;;;;;;;;;;5031028;28;20069;-69
2022/03/14 15:14:41;;;;;;;17.55;10.15;;;;;;;;;;5014727;28;20099;-68
2022/03/14 15:17:08;;;;;;;13.80;9.57;;;;;;;;;;5016050;28;20046;-69
2022/03/14 15:19:36;;;;;;;16.25;10.45;;;;;;;;;;5014611;28;20503;-68
2022/03/14 15:22:05;;;;;;;15.77;10.35;;;;;;;;;;5019043;28;20048;-69
2022/03/14 15:24:34;;;;;;;14.63;9.55;;;;;;;;;;5021138;28;20034;-69
2022/03/14 15:27:04;;;;;;;17.85;9.10;;;;;;;;;;5016109;28;20045;-70
2022/03/14 15:29:35;;;;;;;20.42;11.68;;;;;;;;;;5014560;28;20042;-69
2022/03/14 15:32:05;;;;;;;17.65;11.77;;;;;;;;;;5015664;28;20058;-69
2022/03/14 15:34:35;;;;;;;16.92;9.82;;;;;;;;;;4998078;28;20361;-69
2022/03/14 15:37:09;;;;;;;18.02;10.77;;;;;;;;;;5014645;28;20042;-69